Time;durP1;ratioP1;P1;durP2;ratioP2;P2;SDS_P1;SDS_P2;PMS_P1;PMS_P2;Temp;Humidity;BMP_temperature;BMP_pressure;BME280_temperature;BME280_humidity;BME280_pressure;Samples;Min_cycle;Max_cycle;Signal;HPM_P1;HPM_P2
2023/01/16 00:00:40;;;;;;;3.57;0.93;;;7.70;99.90;;;;;;5044866;28;20432;-33
2023/01/16 00:03:09;;;;;;;2.93;0.90;;;7.70;99.90;;;;;;5045936;28;20231;-33
2023/01/16 00:05:37;;;;;;;6.07;1.27;;;7.70;99.90;;;;;;5046043;28;20211;-33
2023/01/16 00:08:04;;;;;;;2.30;0.90;;;7.60;99.90;;;;;;5045890;28;20196;-33
2023/01/16 00:10:31;;;;;;;7.30;0.90;;;7.60;99.90;;;;;;5045837;28;20199;-33
2023/01/16 00:12:58;;;;;;;3.10;0.90;;;7.60;99.90;;;;;;5045858;28;20274;-31
2023/01/16 00:15:25;;;;;;;3.23;0.90;;;7.60;99.90;;;;;;5046041;28;20614;-32
2023/01/16 00:17:55;;;;;;;5.70;1.07;;;7.60;99.90;;;;;;5046017;28;20203;-32
2023/01/16 00:20:23;;;;;;;4.07;0.73;;;7.60;99.90;;;;;;5046208;28;20250;-32
2023/01/16 00:22:50;;;;;;;3.07;0.93;;;7.60;99.90;;;;;;5046071;28;20201;-32
2023/01/16 00:25:17;;;;;;;3.07;0.80;;;7.60;99.90;;;;;;5046184;28;20200;-32
2023/01/16 00:27:44;;;;;;;3.17;0.93;;;7.50;99.90;;;;;;5045753;28;20736;-32
2023/01/16 00:30:14;;;;;;;3.77;0.90;;;7.50;99.90;;;;;;5045766;28;20673;-32
2023/01/16 00:32:46;;;;;;;5.43;1.70;;;7.50;99.90;;;;;;5044620;28;20262;-32
2023/01/16 00:35:13;;;;;;;4.17;0.70;;;7.40;99.90;;;;;;5045686;28;20198;-32
2023/01/16 00:37:40;;;;;;;4.57;0.80;;;7.50;99.90;;;;;;5045835;28;20287;-32
2023/01/16 00:40:08;;;;;;;4.87;1.00;;;7.50;99.90;;;;;;5047071;28;20576;-32
2023/01/16 00:42:37;;;;;;;2.47;1.07;;;7.50;99.90;;;;;;5047948;28;20732;-32
2023/01/16 00:45:07;;;;;;;3.50;1.17;;;7.50;99.90;;;;;;5049556;28;20295;-32
2023/01/16 00:47:34;;;;;;;2.57;0.67;;;7.50;99.90;;;;;;5049152;28;20251;-32
2023/01/16 00:50:02;;;;;;;2.70;0.70;;;7.50;99.90;;;;;;5049245;28;20220;-32
2023/01/16 00:52:29;;;;;;;3.50;0.73;;;7.50;99.90;;;;;;5048412;28;20247;-32
2023/01/16 00:54:57;;;;;;;6.50;0.97;;;7.40;99.90;;;;;;5049663;28;20688;-32
2023/01/16 00:57:24;;;;;;;3.63;0.90;;;7.50;99.90;;;;;;5049124;28;20204;-32
2023/01/16 00:59:55;;;;;;;3.47;1.00;;;7.40;99.90;;;;;;5049277;28;20212;-32
2023/01/16 01:02:24;;;;;;;3.60;0.70;;;7.40;99.90;;;;;;5049146;28;20636;-32
2023/01/16 01:04:53;;;;;;;2.13;0.70;;;7.40;99.90;;;;;;5049376;28;20216;-31
2023/01/16 01:07:23;;;;;;;2.30;0.90;;;7.40;99.90;;;;;;5048946;28;20218;-32
2023/01/16 01:09:52;;;;;;;1.87;0.67;;;7.30;99.90;;;;;;5048990;28;20320;-32
2023/01/16 01:12:22;;;;;;;3.63;0.90;;;7.30;99.90;;;;;;5048730;28;20745;-32
2023/01/16 01:14:51;;;;;;;3.43;0.70;;;7.30;99.90;;;;;;5048808;28;20658;-32
2023/01/16 01:17:18;;;;;;;4.23;1.67;;;7.30;99.90;;;;;;5048821;28;20201;-32
2023/01/16 01:19:47;;;;;;;3.17;0.93;;;7.30;99.90;;;;;;5048509;28;20205;-32
2023/01/16 01:22:17;;;;;;;1.70;0.70;;;7.30;99.90;;;;;;5048792;28;20192;-32
2023/01/16 01:24:49;;;;;;;2.23;0.77;;;7.30;99.90;;;;;;5048338;28;20243;-32
2023/01/16 01:27:18;;;;;;;2.47;0.70;;;7.30;99.90;;;;;;5049133;28;20243;-32
2023/01/16 01:29:47;;;;;;;5.20;0.90;;;7.30;99.90;;;;;;5048331;28;20224;-32
2023/01/16 01:32:14;;;;;;;5.30;1.27;;;7.30;99.90;;;;;;5046792;28;20218;-32
2023/01/16 01:34:42;;;;;;;1.40;0.80;;;7.30;99.90;;;;;;5046671;28;20204;-32
2023/01/16 01:37:10;;;;;;;4.27;1.20;;;7.40;99.90;;;;;;5046905;28;20200;-32
2023/01/16 01:39:37;;;;;;;1.30;0.80;;;7.40;99.90;;;;;;5048166;28;20621;-32
2023/01/16 01:45:05;;;;;;;5.30;1.40;;;7.40;99.90;;;;;;5047935;28;20204;-32
2023/01/16 01:47:38;;;;;;;3.53;1.07;;;7.40;99.90;;;;;;5048480;28;20204;-32
2023/01/16 01:50:15;;;;;;;3.30;1.00;;;7.40;99.90;;;;;;5048069;28;20240;-32
2023/01/16 01:52:45;;;;;;;5.47;1.10;;;7.50;99.90;;;;;;5046699;28;20398;-32
2023/01/16 01:55:14;;;;;;;2.77;1.30;;;7.50;99.90;;;;;;5046514;28;20710;-32
2023/01/16 01:57:56;;;;;;;4.17;1.00;;;7.50;99.90;;;;;;5047429;28;20211;-32
2023/01/16 02:00:29;;;;;;;5.23;1.20;;;7.50;99.90;;;;;;5047803;28;20250;-32
2023/01/16 02:03:12;;;;;;;4.60;1.57;;;7.50;99.90;;;;;;5047861;28;20576;-32
2023/01/16 02:05:46;;;;;;;6.33;1.40;;;7.50;99.90;;;;;;5045847;28;20318;-32
2023/01/16 02:08:18;;;;;;;7.20;1.30;;;7.50;99.90;;;;;;5047877;28;20200;-32
2023/01/16 02:10:53;;;;;;;4.07;1.27;;;7.50;99.90;;;;;;5047142;28;20231;-32
2023/01/16 02:13:22;;;;;;;6.83;1.53;;;7.60;99.90;;;;;;5052022;28;20219;-32
2023/01/16 02:22:09;;;;;;;6.63;1.47;;;7.60;99.90;;;;;;5046798;28;20202;-32
2023/01/16 02:24:55;;;;;;;4.87;1.30;;;7.70;99.90;;;;;;5075361;28;20264;-33
2023/01/16 02:27:44;;;;;;;5.33;1.30;;;7.70;99.90;;;;;;5047189;28;20315;-33
2023/01/16 02:30:28;;;;;;;4.00;1.00;;;7.70;99.90;;;;;;5047630;28;20224;-32
2023/01/16 02:33:29;;;;;;;7.97;1.70;;;7.80;99.90;;;;;;5047459;28;20239;-32
2023/01/16 02:36:12;;;;;;;5.83;1.63;;;7.80;99.90;;;;;;5047600;28;20196;-33
2023/01/16 02:39:23;;;;;;;3.40;0.87;;;7.80;99.90;;;;;;5045859;28;20698;-33
2023/01/16 02:42:34;;;;;;;6.53;1.33;;;7.80;99.90;;;;;;5048528;28;20634;-33
2023/01/16 02:45:16;;;;;;;4.83;1.27;;;7.80;99.90;;;;;;5046945;28;20694;-33
2023/01/16 02:47:56;;;;;;;6.07;1.10;;;7.80;99.90;;;;;;5045643;28;20202;-32
2023/01/16 02:50:28;;;;;;;5.37;1.27;;;7.90;99.90;;;;;;5046948;28;20687;-33
2023/01/16 02:53:19;;;;;;;4.70;1.23;;;7.90;99.90;;;;;;5045755;28;20318;-33
2023/01/16 02:56:02;;;;;;;6.47;1.73;;;7.90;99.90;;;;;;5047393;28;20208;-33
2023/01/16 02:58:33;;;;;;;5.07;1.40;;;7.90;99.90;;;;;;5047690;28;20279;-32
2023/01/16 03:01:00;;;;;;;5.23;1.20;;;7.90;99.90;;;;;;5045457;28;20576;-32
2023/01/16 03:03:42;;;;;;;5.87;1.20;;;7.90;99.90;;;;;;5046635;28;20698;-33
2023/01/16 03:06:17;;;;;;;4.47;1.20;;;8.00;99.90;;;;;;5046808;28;20199;-32
2023/01/16 03:09:11;;;;;;;5.67;1.17;;;8.00;99.90;;;;;;5046835;28;20985;-33
2023/01/16 03:12:01;;;;;;;5.63;1.10;;;8.00;99.90;;;;;;5046650;28;20220;-32
2023/01/16 03:15:03;;;;;;;6.77;1.50;;;8.00;99.90;;;;;;5046629;28;20752;-33
2023/01/16 03:17:59;;;;;;;4.10;1.10;;;8.00;99.90;;;;;;5046679;28;20199;-33
2023/01/16 03:20:35;;;;;;;4.90;1.03;;;8.00;99.90;;;;;;5046611;28;20989;-33
2023/01/16 03:23:21;;;;;;;6.23;1.27;;;8.00;99.90;;;;;;5046587;28;20207;-33
2023/01/16 03:25:54;;;;;;;5.30;1.37;;;8.10;99.90;;;;;;5046535;28;20204;-33
2023/01/16 03:28:50;;;;;;;6.00;1.40;;;8.10;99.90;;;;;;5046477;28;20232;-33
2023/01/16 03:31:50;;;;;;;6.77;1.20;;;8.10;99.90;;;;;;5046379;28;20211;-33
2023/01/16 03:34:42;;;;;;;4.13;1.30;;;8.10;99.90;;;;;;5046772;28;20208;-33
2023/01/16 03:37:21;;;;;;;5.10;1.17;;;8.10;99.90;;;;;;5045819;28;20287;-32
2023/01/16 03:39:58;;;;;;;5.50;1.30;;;8.10;99.90;;;;;;5046017;28;20223;-33
2023/01/16 03:42:35;;;;;;;4.90;1.10;;;8.10;99.90;;;;;;5046169;28;20231;-32
2023/01/16 03:45:10;;;;;;;5.30;1.17;;;8.10;99.90;;;;;;5046181;28;20211;-32
2023/01/16 03:47:47;;;;;;;5.97;1.33;;;8.20;99.90;;;;;;5046403;28;20188;-32
2023/01/16 03:50:20;;;;;;;5.57;1.13;;;8.20;99.90;;;;;;5046207;28;20220;-33
2023/01/16 03:52:55;;;;;;;4.87;1.23;;;8.20;99.90;;;;;;5046045;28;20263;-33
2023/01/16 03:55:34;;;;;;;6.00;1.37;;;8.20;99.90;;;;;;5046291;28;20250;-33
2023/01/16 03:58:16;;;;;;;4.63;1.07;;;8.20;99.90;;;;;;5045892;28;20235;-33
2023/01/16 04:01:06;;;;;;;5.97;1.23;;;8.20;99.90;;;;;;5045950;28;20204;-32
2023/01/16 04:03:48;;;;;;;3.77;0.93;;;8.30;99.90;;;;;;5043960;28;20200;-33
2023/01/16 04:06:29;;;;;;;3.27;0.90;;;8.30;99.90;;;;;;5045822;28;20300;-33
2023/01/16 04:09:00;;;;;;;5.93;1.40;;;8.30;99.90;;;;;;5044574;28;20200;-32
2023/01/16 04:11:28;;;;;;;5.03;1.00;;;8.30;99.90;;;;;;5045915;28;20775;-33
2023/01/16 04:13:59;;;;;;;2.43;0.80;;;8.30;99.90;;;;;;5044880;28;20606;-32
2023/01/16 04:16:29;;;;;;;4.63;0.83;;;8.30;99.90;;;;;;5050060;28;20722;-33
2023/01/16 04:18:58;;;;;;;4.33;0.90;;;8.40;99.90;;;;;;5049682;28;20678;-33
2023/01/16 04:21:31;;;;;;;4.27;0.97;;;8.40;99.90;;;;;;5049644;28;20208;-32
2023/01/16 04:24:01;;;;;;;3.87;0.83;;;8.40;99.90;;;;;;5050285;28;20204;-33
2023/01/16 04:26:31;;;;;;;2.80;0.80;;;8.40;99.90;;;;;;5049698;28;20309;-33
2023/01/16 04:29:03;;;;;;;5.80;1.27;;;8.40;99.90;;;;;;5048546;28;20277;-32
2023/01/16 04:31:30;;;;;;;3.07;1.20;;;8.40;99.90;;;;;;5049737;28;20260;-32
2023/01/16 04:33:59;;;;;;;3.13;0.97;;;8.40;99.90;;;;;;5049546;28;20199;-32
2023/01/16 04:36:27;;;;;;;5.13;1.00;;;8.40;99.90;;;;;;5049025;28;20307;-32
2023/01/16 04:38:54;;;;;;;6.43;1.20;;;8.50;99.90;;;;;;5049401;28;20612;-33
2023/01/16 04:41:42;;;;;;;5.00;0.90;;;8.50;99.90;;;;;;5048814;28;20192;-32
2023/01/16 04:44:09;;;;;;;4.27;1.33;;;8.50;99.90;;;;;;5048852;28;20738;-33
2023/01/16 04:46:39;;;;;;;3.90;1.13;;;8.50;99.90;;;;;;5047823;28;20287;-33
2023/01/16 04:49:11;;;;;;;4.60;0.97;;;8.50;99.90;;;;;;5048914;28;20204;-33
2023/01/16 04:51:39;;;;;;;5.87;1.00;;;8.50;99.90;;;;;;5048783;28;20244;-33
2023/01/16 04:54:07;;;;;;;5.77;0.80;;;8.50;99.90;;;;;;5048701;28;20214;-33
2023/01/16 04:56:37;;;;;;;5.03;1.00;;;8.50;99.90;;;;;;5048685;28;20196;-33
2023/01/16 04:59:04;;;;;;;7.10;1.33;;;8.50;99.90;;;;;;5049025;28;20300;-33
2023/01/16 05:01:34;;;;;;;4.50;1.27;;;8.50;99.90;;;;;;5048700;28;20269;-33
2023/01/16 05:04:03;;;;;;;3.53;0.80;;;8.60;99.90;;;;;;5048921;28;20659;-33
2023/01/16 05:06:34;;;;;;;5.20;1.17;;;8.60;99.90;;;;;;5048324;28;20209;-33
2023/01/16 05:09:05;;;;;;;3.20;0.83;;;8.60;99.90;;;;;;5048192;28;20306;-33
2023/01/16 05:11:35;;;;;;;5.27;1.03;;;8.50;99.90;;;;;;5046747;28;20227;-33
2023/01/16 05:14:07;;;;;;;4.57;0.90;;;8.60;99.90;;;;;;5047300;28;20207;-32
2023/01/16 05:16:42;;;;;;;5.23;1.20;;;8.60;99.90;;;;;;5048145;28;20205;-33
2023/01/16 05:19:11;;;;;;;5.07;1.10;;;8.60;99.90;;;;;;5048547;28;20307;-33
2023/01/16 05:21:44;;;;;;;6.30;1.27;;;8.60;99.90;;;;;;5048383;28;20212;-32
2023/01/16 05:24:15;;;;;;;3.67;0.80;;;8.60;99.90;;;;;;5048452;28;20571;-33
2023/01/16 05:26:45;;;;;;;3.33;0.70;;;8.60;99.90;;;;;;5047937;28;20231;-32
2023/01/16 05:29:12;;;;;;;4.70;1.03;;;8.60;99.90;;;;;;5048627;28;20262;-33
2023/01/16 05:31:42;;;;;;;4.90;1.10;;;8.60;99.90;;;;;;5047642;28;20230;-33
2023/01/16 05:34:09;;;;;;;4.80;0.90;;;8.60;99.90;;;;;;5048070;28;20311;-33
2023/01/16 05:36:39;;;;;;;5.20;0.90;;;8.60;99.90;;;;;;5048088;28;20197;-33
2023/01/16 05:39:10;;;;;;;5.07;1.30;;;8.60;99.90;;;;;;5047815;28;20228;-33
2023/01/16 05:41:38;;;;;;;6.37;1.13;;;8.60;99.90;;;;;;5047924;28;20231;-33
2023/01/16 05:44:05;;;;;;;3.77;0.80;;;8.60;99.90;;;;;;5047786;28;20291;-32
2023/01/16 05:46:34;;;;;;;4.27;1.00;;;8.60;99.90;;;;;;5047925;28;20713;-33
2023/01/16 05:49:02;;;;;;;3.93;0.70;;;8.60;99.90;;;;;;5047761;28;20298;-33
2023/01/16 05:51:31;;;;;;;3.40;0.83;;;8.60;99.90;;;;;;5047592;28;20310;-32
2023/01/16 05:54:00;;;;;;;4.80;0.93;;;8.60;99.90;;;;;;5048328;28;20651;-32
2023/01/16 05:56:30;;;;;;;4.40;0.90;;;8.50;99.90;;;;;;5047360;28;20289;-32
2023/01/16 05:58:57;;;;;;;2.40;0.57;;;8.50;99.90;;;;;;5047769;28;20204;-32
2023/01/16 06:01:24;;;;;;;5.60;0.80;;;8.50;99.90;;;;;;5047665;28;20220;-33
2023/01/16 06:03:54;;;;;;;2.63;0.63;;;8.50;99.90;;;;;;5047317;28;20877;-32
2023/01/16 06:06:23;;;;;;;3.23;0.70;;;8.50;99.90;;;;;;5047673;28;20212;-32
2023/01/16 06:08:50;;;;;;;2.13;0.53;;;8.60;99.90;;;;;;5047082;28;20683;-32
2023/01/16 06:11:18;;;;;;;4.30;0.90;;;8.50;99.90;;;;;;5046990;28;20274;-33
2023/01/16 06:13:46;;;;;;;3.27;1.00;;;8.50;99.90;;;;;;5046917;28;20212;-33
2023/01/16 06:16:15;;;;;;;3.70;0.60;;;8.50;99.90;;;;;;5047034;28;20200;-32
2023/01/16 06:18:43;;;;;;;2.00;0.50;;;8.50;99.90;;;;;;5047032;28;20200;-33
2023/01/16 06:21:12;;;;;;;5.37;0.60;;;8.50;99.90;;;;;;5046872;28;20488;-33
2023/01/16 06:23:39;;;;;;;1.87;0.50;;;8.40;99.90;;;;;;5045763;28;20208;-33
2023/01/16 06:26:11;;;;;;;1.97;0.47;;;8.40;99.90;;;;;;5045534;28;20208;-32
2023/01/16 06:28:38;;;;;;;2.83;0.57;;;8.40;99.90;;;;;;5046787;28;20731;-33
2023/01/16 06:31:10;;;;;;;1.20;0.40;;;8.40;99.90;;;;;;5046735;28;20714;-33
2023/01/16 06:33:38;;;;;;;2.87;0.50;;;8.40;99.90;;;;;;5046747;28;20200;-33
2023/01/16 06:36:05;;;;;;;3.27;0.53;;;8.40;99.90;;;;;;5046827;28;20224;-33
2023/01/16 06:38:32;;;;;;;2.77;0.50;;;8.40;99.90;;;;;;5046798;28;20195;-33
2023/01/16 06:41:00;;;;;;;1.30;0.47;;;8.30;99.90;;;;;;5047155;28;20287;-33
2023/01/16 06:43:27;;;;;;;1.97;0.50;;;8.40;99.90;;;;;;5046619;28;20930;-33
2023/01/16 06:45:57;;;;;;;1.23;0.40;;;8.40;99.90;;;;;;5046482;28;20227;-33
2023/01/16 06:48:24;;;;;;;2.30;0.60;;;8.40;99.90;;;;;;5046709;28;20222;-32
2023/01/16 06:50:53;;;;;;;3.50;0.50;;;8.30;99.90;;;;;;5046854;28;20228;-32
2023/01/16 06:53:20;;;;;;;1.27;0.40;;;8.30;99.90;;;;;;5046200;28;20234;-32
2023/01/16 06:55:50;;;;;;;1.10;0.40;;;8.30;99.90;;;;;;5046862;28;20590;-32
2023/01/16 06:58:19;;;;;;;1.53;0.40;;;8.20;99.90;;;;;;5046540;28;20208;-32
2023/01/16 07:00:50;;;;;;;1.17;0.40;;;8.20;99.90;;;;;;5046359;28;20236;-33
2023/01/16 07:03:18;;;;;;;1.93;0.33;;;8.30;99.90;;;;;;5046583;28;20223;-33
2023/01/16 07:05:48;;;;;;;1.23;0.30;;;8.30;99.90;;;;;;5046550;28;20220;-33
2023/01/16 07:08:19;;;;;;;1.80;0.40;;;8.30;99.90;;;;;;5045322;28;20245;-33
2023/01/16 07:10:47;;;;;;;0.90;0.30;;;8.20;99.90;;;;;;5046420;28;20217;-33
2023/01/16 07:13:14;;;;;;;0.77;0.30;;;8.20;99.90;;;;;;5046381;28;20188;-33
2023/01/16 07:24:14;;;;;;;0.57;0.30;;;8.20;99.90;;;;;;5046272;28;20230;-33
2023/01/16 07:26:44;;;;;;;0.37;0.20;;;8.20;99.90;;;;;;5046191;28;20694;-32
2023/01/16 07:29:14;;;;;;;1.30;0.20;;;8.20;99.90;;;;;;5046467;28;20192;-32
2023/01/16 07:31:43;;;;;;;0.67;0.20;;;8.10;99.90;;;;;;5046665;28;20278;-33
2023/01/16 07:34:11;;;;;;;0.40;0.20;;;8.10;99.90;;;;;;5046240;28;20730;-33
2023/01/16 07:36:38;;;;;;;0.93;0.20;;;8.10;99.90;;;;;;5044620;28;20678;-32
2023/01/16 07:39:05;;;;;;;8.13;0.20;;;8.10;99.90;;;;;;5046162;28;20196;-33
2023/01/16 07:41:32;;;;;;;1.40;0.20;;;8.10;99.90;;;;;;5046187;28;20302;-33
2023/01/16 07:43:59;;;;;;;1.33;0.27;;;8.10;99.90;;;;;;5046676;28;20272;-33
2023/01/16 07:46:26;;;;;;;0.10;0.03;;;8.10;99.90;;;;;;5046347;28;20204;-33
2023/01/16 07:48:55;;;;;;;0.47;0.20;;;8.00;99.90;;;;;;5046436;28;20212;-33
2023/01/16 07:51:23;;;;;;;0.50;0.07;;;8.00;99.90;;;;;;5049439;28;20521;-33
2023/01/16 07:53:50;;;;;;;0.30;0.10;;;7.90;99.90;;;;;;5048919;28;20901;-35
2023/01/16 07:56:17;;;;;;;1.03;0.10;;;7.90;99.90;;;;;;5050137;28;20658;-33
2023/01/16 07:58:54;;;;;;;0.17;0.10;;;7.90;99.90;;;;;;5049793;28;20597;-33
2023/01/16 08:01:23;;;;;;;0.87;0.20;;;7.90;99.90;;;;;;5048867;28;20207;-34
2023/01/16 08:03:51;;;;;;;1.67;0.30;;;7.80;99.90;;;;;;5050143;28;20628;-35
2023/01/16 08:06:18;;;;;;;0.67;0.20;;;7.80;99.90;;;;;;5050036;28;20208;-35
2023/01/16 08:08:45;;;;;;;0.23;0.10;;;7.80;99.90;;;;;;5050131;28;20208;-34
2023/01/16 08:14:01;;;;;;;0.73;0.20;;;7.80;99.90;;;;;;5049923;28;20233;-34
2023/01/16 08:16:31;;;;;;;0.30;0.20;;;7.80;99.90;;;;;;5049424;28;20231;-35
2023/01/16 08:19:00;;;;;;;1.27;0.10;;;7.80;99.90;;;;;;5050045;28;20287;-34
2023/01/16 08:21:28;;;;;;;0.10;0.10;;;7.80;99.90;;;;;;5049596;28;20242;-35
2023/01/16 08:23:57;;;;;;;0.77;0.10;;;7.80;99.90;;;;;;5050167;28;20304;-35
2023/01/16 08:26:25;;;;;;;0.50;0.20;;;7.80;99.90;;;;;;5049852;28;20200;-34
2023/01/16 08:28:54;;;;;;;0.60;0.17;;;7.80;99.90;;;;;;5048192;28;20250;-35
2023/01/16 08:31:21;;;;;;;0.77;0.20;;;7.80;99.90;;;;;;5049837;28;20343;-32
2023/01/16 08:33:49;;;;;;;0.10;0.10;;;7.80;99.90;;;;;;5049666;28;21082;-33
2023/01/16 08:36:20;;;;;;;0.73;0.30;;;7.80;99.90;;;;;;5049408;28;20242;-33
2023/01/16 08:38:50;;;;;;;0.20;0.20;;;7.80;99.90;;;;;;5049784;28;20213;-33
2023/01/16 08:52:44;;;;;;;6.90;1.07;;;7.80;99.90;;;;;;5047670;28;20255;-33
2023/01/16 08:55:16;;;;;;;0.37;0.20;;;7.90;99.90;;;;;;5049274;28;20204;-33
2023/01/16 08:57:43;;;;;;;4.17;1.37;;;7.90;99.90;;;;;;5048832;28;20247;-33
2023/01/16 09:00:13;;;;;;;1.63;0.20;;;7.90;99.90;;;;;;5048098;28;20207;-33
2023/01/16 09:02:40;;;;;;;0.53;0.27;;;7.90;99.90;;;;;;5049106;28;20758;-33
2023/01/16 09:05:10;;;;;;;1.03;0.30;;;7.90;99.90;;;;;;5048971;28;20303;-32
2023/01/16 09:07:40;;;;;;;2.40;0.60;;;8.00;99.90;;;;;;5047808;28;20211;-33
2023/01/16 09:10:11;;;;;;;0.90;0.50;;;8.00;99.90;;;;;;5047542;28;20283;-33
2023/01/16 09:15:27;;;;;;;0.17;0.17;;;8.10;99.90;;;;;;5048817;28;20540;-32
2023/01/16 09:17:59;;;;;;;0.30;0.30;;;8.10;99.90;;;;;;5048948;28;20750;-33
2023/01/16 09:20:31;;;;;;;0.43;0.20;;;8.20;99.90;;;;;;5048249;28;20611;-32
2023/01/16 09:23:04;;;;;;;0.20;0.20;;;8.20;99.90;;;;;;5046868;28;20294;-33
2023/01/16 09:25:32;;;;;;;1.10;0.60;;;8.30;99.90;;;;;;5047376;28;20204;-35
2023/01/16 09:28:03;;;;;;;0.67;0.67;;;8.30;99.90;;;;;;5048730;28;20196;-33
2023/01/16 09:30:30;;;;;;;1.10;0.73;;;8.40;99.90;;;;;;5048304;28;20311;-33
2023/01/16 09:32:57;;;;;;;0.53;0.40;;;8.40;99.90;;;;;;5048605;28;20208;-32
2023/01/16 09:35:25;;;;;;;0.47;0.30;;;8.40;99.90;;;;;;5049000;28;20196;-33
2023/01/16 09:37:54;;;;;;;2.90;0.40;;;8.50;99.90;;;;;;5048485;28;20238;-33
2023/01/16 09:40:23;;;;;;;0.87;0.40;;;8.50;99.90;;;;;;5048448;28;20744;-33
2023/01/16 09:45:46;;;;;;;0.60;0.30;;;8.60;99.90;;;;;;5048063;28;20208;-33
2023/01/16 09:48:30;;;;;;;1.67;0.60;;;8.60;99.90;;;;;;5046212;28;20321;-33
2023/01/16 09:51:10;;;;;;;0.83;0.60;;;8.70;99.90;;;;;;5047681;28;20204;-33
2023/01/16 09:59:49;;;;;;;1.40;0.40;;;8.80;99.90;;;;;;5048274;28;20218;-32
2023/01/16 10:02:32;;;;;;;0.93;0.30;;;8.80;99.90;;;;;;5050425;28;20200;-32
2023/01/16 10:05:04;;;;;;;0.50;0.50;;;8.90;99.90;;;;;;5046527;28;20266;-32
2023/01/16 10:07:42;;;;;;;0.90;0.60;;;8.90;99.90;;;;;;5029770;28;20231;-32
2023/01/16 10:10:29;;;;;;;1.60;0.80;;;9.00;99.90;;;;;;5045948;28;20554;-32
2023/01/16 10:13:20;;;;;;;0.70;0.47;;;9.00;99.90;;;;;;5044787;28;20224;-32
2023/01/16 10:16:20;;;;;;;1.43;0.50;;;9.00;99.90;;;;;;5047160;28;20209;-32
2023/01/16 10:19:08;;;;;;;0.57;0.30;;;9.10;99.90;;;;;;5046982;28;20223;-32
2023/01/16 10:21:54;;;;;;;1.73;0.50;;;9.10;99.90;;;;;;5056008;28;20331;-32
2023/01/16 10:24:49;;;;;;;0.87;0.37;;;9.10;99.90;;;;;;5047528;28;20207;-32
2023/01/16 10:27:28;;;;;;;1.53;0.53;;;9.10;99.90;;;;;;5047262;28;20235;-32
2023/01/16 10:30:18;;;;;;;0.87;0.40;;;9.10;99.90;;;;;;5047929;28;20262;-32
2023/01/16 10:32:54;;;;;;;0.57;0.37;;;9.20;99.90;;;;;;5049549;28;20730;-32
2023/01/16 10:35:31;;;;;;;0.67;0.23;;;9.20;99.90;;;;;;5045607;28;20211;-32
2023/01/16 10:49:25;;;;;;;3.20;0.43;;;9.30;99.90;;;;;;5047111;28;20542;-32
2023/01/16 10:49:27;;;;;;;1.53;0.30;;;9.40;99.90;;;;;;5046936;28;20245;-32
2023/01/16 10:51:59;;;;;;;1.20;0.30;;;9.40;99.90;;;;;;5046352;28;20250;-32
2023/01/16 10:54:27;;;;;;;0.43;0.30;;;9.50;99.90;;;;;;5046964;28;20242;-32
2023/01/16 10:57:01;;;;;;;0.43;0.30;;;9.50;99.90;;;;;;5046407;28;20196;-32
2023/01/16 10:59:28;;;;;;;2.80;0.67;;;9.50;99.90;;;;;;5045746;28;20204;-33
2023/01/16 11:02:06;;;;;;;1.47;0.50;;;9.50;99.90;;;;;;5046978;28;20212;-31
2023/01/16 11:04:36;;;;;;;1.00;0.30;;;9.50;99.90;;;;;;5046741;28;20230;-31
2023/01/16 11:07:21;;;;;;;1.07;0.23;;;9.60;99.90;;;;;;5046810;28;20219;-32
2023/01/16 11:09:49;;;;;;;2.67;0.40;;;9.60;99.90;;;;;;5046320;28;20204;-31
2023/01/16 11:18:30;;;;;;;0.60;0.30;;;9.70;99.90;;;;;;5046611;28;20188;-31
2023/01/16 11:21:35;;;;;;;0.93;0.40;;;9.80;99.90;;;;;;5046903;28;20208;-31
2023/01/16 11:24:24;;;;;;;0.87;0.30;;;9.80;99.90;;;;;;5046431;28;20195;-31
2023/01/16 11:26:54;;;;;;;2.10;0.40;;;9.80;99.90;;;;;;5044991;28;20200;-31
2023/01/16 11:29:29;;;;;;;0.90;0.37;;;9.80;99.90;;;;;;5046732;28;20303;-31
2023/01/16 11:32:03;;;;;;;0.50;0.43;;;9.80;99.90;;;;;;5046115;28;20228;-34
2023/01/16 11:34:33;;;;;;;1.03;0.50;;;9.90;99.90;;;;;;5045864;28;20213;-31
2023/01/16 11:37:04;;;;;;;0.73;0.70;;;9.90;99.90;;;;;;5046133;28;20618;-31
2023/01/16 11:39:34;;;;;;;2.17;0.40;;;9.90;99.90;;;;;;5046341;28;20239;-31
2023/01/16 11:47:52;;;;;;;0.67;0.30;;;9.90;99.90;;;;;;5046090;28;20216;-33
2023/01/16 11:50:32;;;;;;;1.60;0.47;;;9.90;99.90;;;;;;5045768;28;20200;-32
2023/01/16 11:53:04;;;;;;;1.17;0.37;;;9.90;99.90;;;;;;5046163;28;20267;-32
2023/01/16 11:55:44;;;;;;;1.10;0.40;;;9.90;99.90;;;;;;5046104;28;20545;-33
2023/01/16 11:58:27;;;;;;;0.43;0.43;;;10.00;99.90;;;;;;5045585;28;20310;-33
2023/01/16 12:01:03;;;;;;;1.33;0.70;;;10.00;99.90;;;;;;5046183;28;20223;-32
2023/01/16 12:04:12;;;;;;;1.50;0.73;;;10.00;99.90;;;;;;5045899;28;20237;-32
2023/01/16 12:07:11;;;;;;;1.17;0.40;;;10.00;99.90;;;;;;5044442;28;20230;-33
2023/01/16 12:09:41;;;;;;;2.10;0.50;;;10.00;99.90;;;;;;5045774;28;20608;-33
2023/01/16 12:15:35;;;;;;;2.53;0.47;;;10.10;99.90;;;;;;5044406;28;20277;-33
2023/01/16 12:18:05;;;;;;;2.73;0.50;;;10.10;99.90;;;;;;5045785;28;20205;-32
2023/01/16 12:21:00;;;;;;;1.80;0.50;;;10.10;99.90;;;;;;5045887;28;20748;-33
2023/01/16 12:23:48;;;;;;;0.70;0.30;;;10.10;99.90;;;;;;5046531;28;20247;-33
2023/01/16 12:26:28;;;;;;;0.90;0.30;;;10.10;99.90;;;;;;5045796;28;20702;-33
2023/01/16 12:29:24;;;;;;;0.97;0.23;;;10.10;99.90;;;;;;5046223;28;20216;-33
2023/01/16 12:31:53;;;;;;;1.27;0.30;;;10.10;99.90;;;;;;5045867;28;20244;-33
2023/01/16 12:34:36;;;;;;;0.30;0.20;;;10.10;99.90;;;;;;5044147;28;20399;-32
2023/01/16 12:37:39;;;;;;;2.13;0.70;;;10.10;99.90;;;;;;5047541;28;20207;-33
2023/01/16 12:40:32;;;;;;;2.53;0.60;;;10.10;99.90;;;;;;5049479;28;20245;-32
2023/01/16 12:43:23;;;;;;;1.87;0.53;;;10.00;99.90;;;;;;5049495;28;20204;-32
2023/01/16 12:45:55;;;;;;;2.03;0.40;;;10.00;99.90;;;;;;5048156;28;20200;-33
2023/01/16 12:48:58;;;;;;;3.97;0.40;;;10.00;99.90;;;;;;5049351;28;20209;-33
2023/01/16 12:51:30;;;;;;;2.83;0.73;;;10.00;99.90;;;;;;5048918;28;20547;-32
2023/01/16 12:54:06;;;;;;;12.97;1.10;;;10.00;99.90;;;;;;5049138;28;20202;-32
2023/01/16 12:56:51;;;;;;;4.93;1.00;;;10.00;99.90;;;;;;5049150;28;20882;-33
2023/01/16 12:59:21;;;;;;;0.57;0.30;;;10.00;99.90;;;;;;5047748;28;20258;-33
2023/01/16 13:02:01;;;;;;;0.50;0.50;;;10.00;99.90;;;;;;5049178;28;20239;-33
2023/01/16 13:04:42;;;;;;;0.80;0.37;;;10.00;99.90;;;;;;5049026;28;20567;-33
2023/01/16 13:07:16;;;;;;;1.23;0.40;;;10.00;99.90;;;;;;5049101;28;20200;-33
2023/01/16 13:09:49;;;;;;;0.40;0.30;;;10.00;99.90;;;;;;5048624;28;20192;-33
2023/01/16 13:15:26;;;;;;;0.40;0.40;;;9.90;99.90;;;;;;5048780;28;20216;-32
2023/01/16 13:18:09;;;;;;;0.70;0.30;;;9.90;99.90;;;;;;5048937;28;20545;-33
2023/01/16 13:20:42;;;;;;;3.23;0.50;;;9.90;99.90;;;;;;5048446;28;20239;-33
2023/01/16 13:23:19;;;;;;;1.70;0.47;;;9.90;99.90;;;;;;5048651;28;20616;-33
2023/01/16 13:25:55;;;;;;;0.30;0.30;;;9.90;99.90;;;;;;5046875;28;20216;-33
2023/01/16 13:28:35;;;;;;;0.67;0.43;;;9.80;99.90;;;;;;5048550;28;20204;-33
2023/01/16 13:31:14;;;;;;;0.93;0.40;;;9.80;99.90;;;;;;5048256;28;20216;-32
2023/01/16 13:33:47;;;;;;;1.77;0.40;;;9.90;99.90;;;;;;5048014;28;20786;-32
2023/01/16 13:36:43;;;;;;;0.70;0.40;;;9.90;99.90;;;;;;5046727;28;20212;-32
2023/01/16 13:39:29;;;;;;;0.60;0.40;;;9.90;99.90;;;;;;5048354;28;20186;-32
2023/01/16 13:42:01;;;;;;;0.53;0.40;;;9.80;99.90;;;;;;5048366;28;20617;-32
2023/01/16 13:47:32;;;;;;;1.27;0.60;;;9.80;99.90;;;;;;5047837;28;20200;-33
2023/01/16 13:50:22;;;;;;;1.50;0.40;;;9.80;99.90;;;;;;5048278;28;20304;-33
2023/01/16 13:52:53;;;;;;;0.43;0.43;;;9.80;99.90;;;;;;5047491;28;20236;-32
2023/01/16 13:55:42;;;;;;;1.00;0.53;;;9.80;99.90;;;;;;5046234;28;20196;-33
2023/01/16 13:58:20;;;;;;;1.77;0.57;;;9.80;99.90;;;;;;5047717;28;20710;-33
2023/01/16 14:00:57;;;;;;;1.23;0.40;;;9.80;99.90;;;;;;5048112;28;20192;-33
2023/01/16 14:03:31;;;;;;;0.93;0.67;;;9.80;99.90;;;;;;5047903;28;20204;-33
2023/01/16 14:06:09;;;;;;;3.03;0.70;;;9.80;99.90;;;;;;5048064;28;20219;-32
2023/01/16 14:09:07;;;;;;;0.90;0.50;;;9.80;99.90;;;;;;5046265;28;20848;-32
2023/01/16 14:12:01;;;;;;;0.83;0.30;;;9.80;99.90;;;;;;5047905;28;20204;-33
2023/01/16 14:17:56;;;;;;;2.83;0.57;;;9.80;99.90;;;;;;5047697;28;20630;-33
2023/01/16 14:20:50;;;;;;;1.43;0.70;;;9.80;99.90;;;;;;5054728;28;20214;-33
2023/01/16 14:26:33;;;;;;;1.10;0.60;;;9.80;99.90;;;;;;5047506;28;20211;-33
2023/01/16 14:29:19;;;;;;;1.07;0.80;;;9.70;99.90;;;;;;5046353;28;20204;-32
2023/01/16 14:32:16;;;;;;;1.33;0.60;;;9.70;99.90;;;;;;5047624;28;20204;-32
2023/01/16 14:35:02;;;;;;;0.57;0.40;;;9.70;99.90;;;;;;5047579;28;20198;-33
2023/01/16 14:37:38;;;;;;;1.00;0.60;;;9.70;99.90;;;;;;5047196;28;20672;-33
2023/01/16 14:40:10;;;;;;;1.13;0.70;;;9.70;99.90;;;;;;5047099;28;20226;-33
2023/01/16 14:55:48;;;;;;;1.73;0.70;;;9.70;99.90;;;;;;5047311;28;20243;-33
2023/01/16 14:58:26;;;;;;;1.03;0.83;;;9.70;99.90;;;;;;5046356;28;20709;-33
2023/01/16 15:00:56;;;;;;;1.30;0.60;;;9.70;99.90;;;;;;5047276;28;20741;-33
2023/01/16 15:03:29;;;;;;;1.80;0.80;;;9.70;99.90;;;;;;5046565;28;20586;-33
2023/01/16 15:06:04;;;;;;;1.90;0.80;;;9.70;99.90;;;;;;5044793;28;20270;-33